Dublin, GA (31027)

4:35 PM EDT on August 23, 2014 (GMT -0400)
South Treutlen Co. | Change Station
CLOSE
Current Station
Personal Weather Station
Location: Soperton, GA
Elevation: 236 ft
Nearby Weather Stations
Active Advisory: Heat Advisory

Elev 236 ft 32.32 °N, 82.60 °W | Updated 13 seconds ago

Scattered Clouds
Scattered Clouds
96.9 °F
Feels Like 105 °F
N
0.0
Wind Variable Wind from North
Gusts 2.0 mph

Today
High -- | Low -- °F
--% Chance of Precip.
Yesterday
High -- | Low -- °F
Precip. -- in
7:00 AM 8:07 PM
Waning Crescent, 3% visible
Pressure 29.92 in
Visibility 10.0 miles
Clouds Scattered Clouds 7000 ft
Heat Index 105 °F
Dew Point 71 °F
Humidity 43%
Rainfall 0.00 in
Snow Depth Not available.
UV 6 out of 12
Pollen 8.30 out of 12
Air Quality Not available.
Flu Activity Not available.
METAR KEZM 232015Z AUTO 34005KT 10SM SCT070 37/20 A2992 RMK AO2 LTG DSNT SW T03670201

More Conditions Fewer Conditions

Pressure 29.92 in
Visibility 10.0 miles
Clouds Scattered Clouds 7000 ft
Heat Index 105 °F
Dew Point 71 °F
Humidity 43%
Rainfall 0.00 in
Snow Depth Not available.
UV 6 out of 12
Pollen 8.30 out of 12
Air Quality Not available.
Flu Activity Not available.
METAR KEZM 232015Z AUTO 34005KT 10SM SCT070 37/20 A2992 RMK AO2 LTG DSNT SW T03670201

More Conditions Fewer Conditions

10-Day Weather Forecast

Almanac

Astronomy

Aug. 23, 2014 Rise Set
Actual Time 7:00 AM EDT 8:07 PM EDT
Civil Twilight 6:35 AM EDT 8:32 PM EDT
Nautical Twilight 6:04 AM EDT 9:02 PM EDT
Astronomical Twilight 5:33 AM EDT 9:33 PM EDT
Moon 5:17 AM EDT 6:50 PM EDT
Length of Visible Light 13h 57m
Length of Day
13h 06m
Tomorrow will be 1m 52s shorter.
Waning Crescent, 3% of the Moon is Illuminated
Today
Waning Crescent
Aug 25
New
Sep 2
First Quarter
Sep 8
Full
Sep 15
Last Quarter

Today's Extremes

State Highs State Lows

Community

WunderPhotos

Upload Photos

1,746,619 photos uploaded!

WunderBlogs® & News

Nearby

Snow Depth

Station Depth Elevation
No new snow has been reported.

Earthquake Activity

City Distance Mag. Time & Date
No recent earthquake activity has been reported nearby.
Minimum magnitude displayed is 2.5.

Coastal Water Temperatures

Place Temperature
No Stations Reporting

Nearby Weather Stations